createdAt,value
2018-05-15T00:02:23.390Z,17.83
2018-05-15T00:04:50.890Z,17.87
2018-05-15T00:07:18.413Z,18.07
2018-05-15T00:09:45.912Z,19.33
2018-05-15T00:12:13.428Z,19.23
2018-05-15T00:14:40.932Z,19.30
2018-05-15T00:17:09.208Z,19.27
2018-05-15T00:19:36.704Z,20.83
2018-05-15T00:22:04.990Z,21.83
2018-05-15T00:24:32.602Z,22.27
2018-05-15T00:27:00.121Z,22.60
2018-05-15T00:29:27.621Z,21.73
2018-05-15T00:31:55.224Z,25.80
2018-05-15T00:34:22.729Z,24.40
2018-05-15T00:36:50.341Z,24.93
2018-05-15T00:39:17.840Z,26.23
2018-05-15T00:41:45.456Z,24.57
2018-05-15T00:44:13.752Z,25.90
2018-05-15T00:46:41.261Z,26.37
2018-05-15T00:49:08.769Z,27.60
2018-05-15T00:51:36.300Z,28.00
2018-05-15T00:54:04.572Z,28.63
2018-05-15T00:56:32.864Z,26.50
2018-05-15T00:59:00.429Z,27.37
2018-05-15T01:01:27.953Z,27.57
2018-05-15T01:03:56.228Z,28.30
2018-05-15T01:06:24.520Z,28.70
2018-05-15T01:08:52.784Z,31.10
2018-05-15T01:11:21.073Z,28.93
2018-05-15T01:13:49.345Z,29.73
2018-05-15T01:16:17.637Z,29.47
2018-05-15T01:18:45.141Z,28.10
2018-05-15T01:21:12.668Z,26.70
2018-05-15T01:23:40.189Z,28.13
2018-05-15T01:26:07.710Z,28.97
2018-05-15T01:28:35.213Z,28.00
2018-05-15T01:31:03.501Z,30.70
2018-05-15T01:33:31.010Z,31.77
2018-05-15T01:35:58.534Z,30.33
2018-05-15T01:38:26.037Z,30.40
2018-05-15T01:40:54.325Z,29.20
2018-05-15T01:43:21.920Z,29.90
2018-05-15T01:45:49.436Z,32.07
2018-05-15T01:48:17.726Z,30.77
2018-05-15T01:50:46.294Z,30.83
2018-05-15T01:53:13.907Z,30.57
2018-05-15T01:55:41.413Z,32.17
2018-05-15T01:58:10.442Z,29.63
2018-05-15T02:00:38.008Z,28.20
2018-05-15T02:03:05.528Z,30.57
2018-05-15T02:05:33.041Z,28.33
2018-05-15T02:08:00.565Z,27.90
2018-05-15T02:10:28.844Z,28.00
2018-05-15T02:12:57.128Z,28.67
2018-05-15T02:15:24.634Z,29.00
2018-05-15T02:17:52.154Z,28.20
2018-05-15T02:20:19.708Z,27.60
2018-05-15T02:22:47.229Z,27.00
2018-05-15T02:25:14.729Z,27.90
2018-05-15T02:27:42.248Z,26.10
2018-05-15T02:30:09.753Z,27.83
2018-05-15T02:32:37.281Z,28.77
2018-05-15T02:35:04.861Z,26.73
2018-05-15T02:37:32.384Z,26.97
2018-05-15T02:39:59.889Z,29.90
2018-05-15T02:42:27.445Z,27.50
2018-05-15T02:44:54.957Z,29.13
2018-05-15T02:47:22.486Z,30.07
2018-05-15T02:49:49.998Z,30.03
2018-05-15T02:52:18.290Z,30.40
2018-05-15T02:54:45.804Z,29.00
2018-05-15T02:57:14.097Z,29.10
2018-05-15T02:59:42.397Z,31.77
2018-05-15T03:02:09.933Z,32.57
2018-05-15T03:04:38.213Z,32.37
2018-05-15T03:07:06.506Z,34.17
2018-05-15T03:09:34.069Z,32.40
2018-05-15T03:12:01.590Z,34.63
2018-05-15T03:14:29.104Z,33.63
2018-05-15T03:16:56.629Z,34.63
2018-05-15T03:19:24.901Z,34.57
2018-05-15T03:21:53.192Z,33.63
2018-05-15T03:24:20.703Z,33.70
2018-05-15T03:26:48.313Z,33.83
2018-05-15T03:29:15.825Z,34.57
2018-05-15T03:31:44.117Z,34.73
2018-05-15T03:34:12.385Z,38.33
2018-05-15T03:36:39.985Z,36.60
2018-05-15T03:39:07.544Z,38.27
2018-05-15T03:41:35.090Z,38.30
2018-05-15T03:44:03.352Z,36.00
2018-05-15T03:46:31.623Z,37.70
2018-05-15T03:48:59.145Z,36.90
2018-05-15T03:51:26.648Z,40.57
2018-05-15T03:53:54.934Z,39.40
2018-05-15T03:56:23.206Z,38.07
2018-05-15T03:58:51.496Z,40.30
2018-05-15T04:01:30.958Z,38.83
2018-05-15T04:04:10.576Z,36.60
2018-05-15T04:06:50.045Z,38.10
2018-05-15T04:09:17.580Z,38.70
2018-05-15T04:11:45.089Z,37.27
2018-05-15T04:14:12.614Z,38.67
2018-05-15T04:16:40.153Z,38.40
2018-05-15T04:19:08.517Z,36.33
2018-05-15T04:21:36.797Z,35.40
2018-05-15T04:24:04.321Z,33.80
2018-05-15T04:26:32.593Z,35.83
2018-05-15T04:29:00.213Z,33.60
2018-05-15T04:31:27.717Z,32.23
2018-05-15T04:33:55.237Z,36.47
2018-05-15T04:36:22.744Z,34.57
2018-05-15T04:38:51.029Z,32.60
2018-05-15T04:41:19.297Z,31.40
2018-05-15T04:43:47.827Z,29.67
2018-05-15T04:46:15.114Z,29.87
2018-05-15T04:48:44.145Z,29.97
2018-05-15T04:51:12.409Z,30.07
2018-05-15T04:53:40.693Z,29.63
2018-05-15T04:56:08.961Z,27.67
2018-05-15T04:58:37.240Z,30.00
2018-05-15T05:01:05.504Z,27.70
2018-05-15T05:03:33.795Z,29.10
2018-05-15T05:06:02.116Z,28.30
2018-05-15T05:08:29.632Z,28.03
2018-05-15T05:10:57.921Z,28.93
2018-05-15T05:13:25.441Z,28.10
2018-05-15T05:15:52.943Z,29.50
2018-05-15T05:18:20.464Z,28.00
2018-05-15T05:20:47.972Z,26.57
2018-05-15T05:23:15.493Z,25.63
2018-05-15T05:25:43.769Z,25.83
2018-05-15T05:28:12.067Z,24.40
2018-05-15T05:30:39.581Z,22.87
2018-05-15T05:33:07.109Z,22.70
2018-05-15T05:35:34.624Z,22.03
2018-05-15T05:38:02.912Z,19.47
2018-05-15T05:40:30.416Z,20.47
2018-05-15T05:42:57.943Z,20.40
2018-05-15T05:45:25.498Z,19.97
2018-05-15T05:47:53.009Z,18.13
2018-05-15T05:50:20.529Z,17.80
2018-05-15T05:52:48.033Z,19.07
2018-05-15T05:55:15.557Z,18.50
2018-05-15T05:57:43.066Z,18.40
2018-05-15T06:00:11.358Z,19.43
2018-05-15T06:02:38.865Z,17.07
2018-05-15T06:05:06.385Z,16.97
2018-05-15T06:07:33.889Z,17.00
2018-05-15T06:10:01.497Z,15.97
2018-05-15T06:12:29.009Z,15.43
2018-05-15T06:14:56.528Z,14.63
2018-05-15T06:17:24.029Z,14.70
2018-05-15T06:19:53.057Z,16.33
2018-05-15T06:22:20.561Z,15.80
2018-05-15T06:24:48.085Z,15.00
2018-05-15T06:27:15.598Z,14.47
2018-05-15T06:29:43.121Z,14.80
2018-05-15T06:32:10.626Z,14.23
2018-05-15T06:34:38.920Z,14.20
2018-05-15T06:37:06.493Z,14.40
2018-05-15T06:39:34.017Z,14.97
2018-05-15T06:42:02.293Z,14.23
2018-05-15T06:44:30.585Z,15.50
2018-05-15T06:46:58.849Z,13.77
2018-05-15T06:49:27.161Z,15.47
2018-05-15T06:51:54.709Z,14.63
2018-05-15T06:54:22.234Z,13.70
2018-05-15T06:56:49.741Z,12.00
2018-05-15T06:59:17.260Z,11.10
2018-05-15T07:01:45.621Z,11.37
2018-05-15T07:04:13.069Z,10.67
2018-05-15T07:06:42.082Z,9.70
2018-05-15T07:09:10.373Z,11.60
2018-05-15T07:11:38.645Z,11.90
2018-05-15T07:14:06.979Z,11.30
2018-05-15T07:16:34.466Z,11.17
2018-05-15T07:19:01.985Z,11.00
2018-05-15T07:21:29.489Z,11.50
2018-05-15T07:23:57.776Z,11.00
2018-05-15T07:26:26.050Z,10.80
2018-05-15T07:28:54.337Z,10.53
2018-05-15T07:31:21.845Z,10.20
2018-05-15T07:33:49.361Z,11.40
2018-05-15T07:36:16.868Z,10.43
2018-05-15T07:38:44.389Z,10.13
2018-05-15T07:41:11.900Z,10.00
2018-05-15T07:43:39.442Z,11.07
2018-05-15T07:46:06.945Z,10.60
2018-05-15T07:48:34.461Z,10.17
2018-05-15T07:51:01.980Z,11.07
2018-05-15T07:53:29.488Z,11.50
2018-05-15T07:55:57.012Z,11.10
2018-05-15T07:58:24.516Z,12.07
2018-05-15T08:00:52.801Z,12.70
2018-05-15T08:03:21.064Z,11.77
2018-05-15T08:05:49.352Z,12.40
2018-05-15T08:08:17.624Z,11.90
2018-05-15T08:10:45.916Z,11.70
2018-05-15T08:13:13.423Z,11.77
2018-05-15T08:15:40.954Z,11.73
2018-05-15T08:18:08.460Z,10.70
2018-05-15T08:20:35.980Z,10.43
2018-05-15T08:23:03.478Z,11.47
2018-05-15T08:25:31.287Z,10.27
2018-05-15T08:27:58.792Z,10.70
2018-05-15T08:30:26.309Z,10.30
2018-05-15T08:32:53.820Z,10.47
2018-05-15T08:35:21.341Z,11.53
2018-05-15T08:37:49.612Z,10.73
2018-05-15T08:40:17.133Z,11.00
2018-05-15T08:42:44.642Z,10.47
2018-05-15T08:45:12.166Z,10.30
2018-05-15T08:47:39.673Z,10.20
2018-05-15T08:50:07.201Z,10.30
2018-05-15T08:52:34.709Z,10.73
2018-05-15T08:55:03.008Z,10.83
2018-05-15T08:57:30.512Z,11.60
2018-05-15T08:59:58.030Z,11.20
2018-05-15T09:02:25.533Z,9.73
2018-05-15T09:04:53.049Z,10.60
2018-05-15T09:07:20.548Z,9.33
2018-05-15T09:09:48.073Z,10.30
2018-05-15T09:12:15.580Z,10.40
2018-05-15T09:14:43.102Z,10.67
2018-05-15T09:17:10.608Z,10.23
2018-05-15T09:19:38.897Z,10.33
2018-05-15T09:22:07.161Z,10.83
2018-05-15T09:24:35.441Z,9.47
2018-05-15T09:27:03.713Z,10.27
2018-05-15T09:29:31.998Z,9.97
2018-05-15T09:32:00.265Z,9.80
2018-05-15T09:34:28.550Z,10.23
2018-05-15T09:36:56.825Z,10.50
2018-05-15T09:39:25.113Z,10.77
2018-05-15T09:41:52.616Z,10.17
2018-05-15T09:44:20.143Z,11.17
2018-05-15T09:46:47.701Z,10.50
2018-05-15T09:49:15.944Z,9.73
2018-05-15T09:51:44.236Z,11.33
2018-05-15T09:54:11.749Z,11.40
2018-05-15T09:56:39.276Z,10.83
2018-05-15T09:59:06.780Z,10.73
2018-05-15T10:01:34.301Z,11.07
2018-05-15T10:04:01.819Z,9.90
2018-05-15T10:06:30.104Z,9.60
2018-05-15T10:08:57.605Z,11.23
2018-05-15T10:11:25.129Z,11.13
2018-05-15T10:13:52.657Z,10.30
2018-05-15T10:16:20.951Z,11.10
2018-05-15T10:18:49.221Z,11.90
2018-05-15T10:21:17.514Z,11.27
2018-05-15T10:23:45.020Z,12.00
2018-05-15T10:26:12.550Z,11.70
2018-05-15T10:28:40.061Z,11.23
2018-05-15T10:31:08.349Z,11.47
2018-05-15T10:33:36.613Z,11.23
2018-05-15T10:36:04.901Z,12.13
2018-05-15T10:38:33.171Z,10.53
2018-05-15T10:41:01.466Z,12.17
2018-05-15T10:43:28.981Z,12.10
2018-05-15T10:45:56.505Z,13.50
2018-05-15T10:48:24.010Z,14.60
2018-05-15T10:50:51.611Z,12.87
2018-05-15T10:53:19.058Z,13.63
2018-05-15T10:55:46.580Z,15.27
2018-05-15T10:58:14.865Z,16.27
2018-05-15T11:00:42.393Z,17.10
2018-05-15T11:03:11.098Z,16.50
2018-05-15T11:05:38.625Z,12.13
2018-05-15T11:08:06.134Z,11.93
2018-05-15T11:10:34.424Z,11.80
2018-05-15T11:13:01.934Z,11.10
2018-05-15T11:15:29.458Z,10.27
2018-05-15T11:17:56.964Z,11.27
2018-05-15T11:20:36.382Z,11.60
2018-05-15T11:23:16.426Z,12.33
2018-05-15T11:25:43.945Z,10.63
2018-05-15T11:28:11.446Z,9.63
2018-05-15T11:30:38.977Z,10.00
2018-05-15T11:33:06.481Z,11.87
2018-05-15T11:35:34.042Z,11.80
2018-05-15T11:38:01.518Z,9.53
2018-05-15T11:40:29.812Z,10.57
2018-05-15T11:42:57.321Z,10.93
2018-05-15T11:45:24.858Z,8.77
2018-05-15T11:47:52.663Z,9.73
2018-05-15T11:50:21.619Z,8.00
2018-05-15T11:52:48.661Z,8.60
2018-05-15T11:55:16.489Z,9.77
2018-05-15T11:57:45.523Z,10.70
2018-05-15T12:00:13.825Z,9.30
2018-05-15T12:02:41.327Z,9.50
2018-05-15T12:05:08.833Z,8.47
2018-05-15T12:07:36.349Z,8.97
2018-05-15T12:10:03.848Z,8.80
2018-05-15T12:12:31.365Z,8.77
2018-05-15T12:14:58.952Z,8.60
2018-05-15T12:17:26.413Z,8.70
2018-05-15T12:19:53.912Z,9.40
2018-05-15T12:22:21.424Z,8.47
2018-05-15T12:24:48.929Z,9.33
2018-05-15T12:27:17.213Z,9.90
2018-05-15T12:29:45.567Z,10.97
2018-05-15T12:32:13.025Z,10.80
2018-05-15T12:34:40.538Z,11.80
2018-05-15T12:37:08.065Z,12.03
2018-05-15T12:39:36.337Z,10.90
2018-05-15T12:42:04.862Z,13.07
2018-05-15T12:44:32.148Z,11.83
2018-05-15T12:46:59.670Z,13.43
2018-05-15T12:49:27.177Z,13.80
2018-05-15T12:51:54.699Z,13.03
2018-05-15T12:54:22.205Z,14.00
2018-05-15T12:56:50.490Z,14.00
2018-05-15T12:59:18.761Z,14.13
2018-05-15T13:01:47.146Z,15.23
2018-05-15T13:04:14.577Z,15.57
2018-05-15T13:06:42.105Z,14.50
2018-05-15T13:09:09.609Z,14.80
2018-05-15T13:11:37.901Z,15.83
2018-05-15T13:14:05.408Z,16.57
2018-05-15T13:16:33.693Z,15.37
2018-05-15T13:19:01.206Z,15.33
2018-05-15T13:21:28.734Z,14.87
2018-05-15T13:23:57.005Z,14.40
2018-05-15T13:26:25.293Z,16.23
2018-05-15T13:28:53.570Z,17.23
2018-05-15T13:31:21.857Z,14.40
2018-05-15T13:33:49.362Z,12.90
2018-05-15T13:36:16.894Z,11.53
2018-05-15T13:38:44.407Z,11.00
2018-05-15T13:41:12.778Z,10.27
2018-05-15T13:43:40.221Z,12.37
2018-05-15T13:46:07.748Z,12.77
2018-05-15T13:48:35.256Z,12.40
2018-05-15T13:51:03.539Z,13.97
2018-05-15T13:53:31.844Z,13.33
2018-05-15T13:55:59.353Z,13.30
2018-05-15T13:58:26.885Z,11.70
2018-05-15T14:00:54.388Z,11.23
2018-05-15T14:03:22.680Z,10.67
2018-05-15T14:05:50.953Z,11.90
2018-05-15T14:08:19.240Z,10.20
2018-05-15T14:10:46.740Z,10.00
2018-05-15T14:13:14.252Z,9.17
2018-05-15T14:15:41.752Z,8.60
2018-05-15T14:18:09.274Z,9.10
2018-05-15T14:20:36.776Z,10.27
2018-05-15T14:23:04.289Z,12.83
2018-05-15T14:25:31.797Z,22.13
2018-05-15T14:27:59.317Z,10.77
2018-05-15T14:30:26.825Z,7.77
2018-05-15T14:32:54.345Z,7.57
2018-05-15T14:35:21.841Z,7.37
2018-05-15T14:37:49.360Z,7.17
2018-05-15T14:40:16.861Z,6.07
2018-05-15T14:42:56.320Z,6.30
2018-05-15T14:45:23.789Z,7.67
2018-05-15T14:47:51.308Z,8.40
2018-05-15T14:50:18.807Z,6.23
2018-05-15T14:52:46.334Z,5.07
2018-05-15T14:55:13.837Z,8.00
2018-05-15T14:57:41.357Z,7.50
2018-05-15T15:00:09.626Z,7.20
2018-05-15T15:02:37.136Z,6.40
2018-05-15T15:05:04.642Z,7.10
2018-05-15T15:07:32.157Z,5.80
2018-05-15T15:09:59.660Z,5.07
2018-05-15T15:12:27.949Z,4.90
2018-05-15T15:14:56.222Z,4.73
2018-05-15T15:17:24.539Z,4.90
2018-05-15T15:19:52.034Z,4.73
2018-05-15T15:22:19.557Z,6.00
2018-05-15T15:24:47.060Z,5.10
2018-05-15T15:27:14.627Z,4.63
2018-05-15T15:29:42.910Z,4.20
2018-05-15T15:32:11.197Z,6.87
2018-05-15T15:34:39.467Z,7.97
2018-05-15T15:37:07.753Z,7.00
2018-05-15T15:39:35.257Z,7.50
2018-05-15T15:42:02.773Z,6.93
2018-05-15T15:44:30.277Z,6.93
2018-05-15T15:46:57.813Z,5.93
2018-05-15T15:49:25.309Z,6.27
2018-05-15T15:51:52.808Z,6.10
2018-05-15T15:54:20.326Z,7.20
2018-05-15T15:56:47.833Z,5.60
2018-05-15T15:59:15.358Z,4.33
2018-05-15T16:01:43.617Z,3.40
2018-05-15T16:04:11.166Z,3.63
2018-05-15T16:06:38.648Z,2.50
2018-05-15T16:09:06.932Z,3.40
2018-05-15T16:11:35.202Z,3.17
2018-05-15T16:14:03.481Z,2.90
2018-05-15T16:16:31.749Z,3.60
2018-05-15T16:19:00.033Z,3.50
2018-05-15T16:21:28.304Z,6.70
2018-05-15T16:23:56.585Z,5.40
2018-05-15T16:26:24.849Z,6.43
2018-05-15T16:28:52.369Z,4.10
2018-05-15T16:31:19.864Z,3.80
2018-05-15T16:33:47.822Z,3.90
2018-05-15T16:36:16.005Z,4.20
2018-05-15T16:38:43.520Z,5.47
2018-05-15T16:41:11.029Z,5.57
2018-05-15T16:43:39.315Z,4.80
2018-05-15T16:46:07.582Z,4.70
2018-05-15T16:48:35.861Z,5.80
2018-05-15T16:51:04.120Z,6.63
2018-05-15T16:53:31.637Z,7.33
2018-05-15T16:55:59.141Z,7.20
2018-05-15T16:58:26.665Z,7.77
2018-05-15T17:00:54.172Z,7.20
2018-05-15T17:03:22.453Z,5.67
2018-05-15T17:05:51.109Z,6.70
2018-05-15T17:08:18.719Z,7.60
2018-05-15T17:10:46.149Z,7.43
2018-05-15T17:13:14.829Z,8.07
2018-05-15T17:15:47.457Z,7.80
2018-05-15T17:18:14.976Z,7.37
2018-05-15T17:20:43.245Z,7.50
2018-05-15T17:23:11.529Z,7.40
2018-05-15T17:25:39.797Z,7.40
2018-05-15T17:28:08.073Z,7.40
2018-05-15T17:30:36.345Z,7.70
2018-05-15T17:33:04.634Z,8.90
2018-05-15T17:35:32.908Z,9.40
2018-05-15T17:38:01.198Z,8.40
2018-05-15T17:40:28.705Z,7.50
2018-05-15T17:42:56.225Z,9.20
2018-05-15T17:45:23.725Z,9.10
2018-05-15T17:47:51.250Z,8.27
2018-05-15T17:50:18.757Z,8.97
2018-05-15T17:52:46.285Z,9.20
2018-05-15T17:55:13.789Z,9.67
2018-05-15T17:57:42.068Z,9.50
2018-05-15T18:00:10.337Z,8.83
2018-05-15T18:02:38.630Z,9.27
2018-05-15T18:05:06.160Z,10.70
2018-05-15T18:07:33.767Z,11.23
2018-05-15T18:10:01.285Z,11.10
2018-05-15T18:12:29.649Z,11.70
2018-05-15T18:14:57.178Z,11.63
2018-05-15T18:17:24.688Z,12.23
2018-05-15T18:19:52.224Z,8.17
2018-05-15T18:22:19.721Z,7.10
2018-05-15T18:24:47.237Z,7.03
2018-05-15T18:27:14.740Z,8.80
2018-05-15T18:29:42.253Z,8.20
2018-05-15T18:32:09.757Z,8.47
2018-05-15T18:34:37.273Z,7.10
2018-05-15T18:37:04.777Z,7.70
2018-05-15T18:39:32.289Z,8.50
2018-05-15T18:41:59.797Z,7.83
2018-05-15T18:44:27.321Z,7.03
2018-05-15T18:46:55.581Z,8.20
2018-05-15T18:49:23.097Z,7.87
2018-05-15T18:51:50.597Z,7.90
2018-05-15T18:54:18.893Z,8.00
2018-05-15T18:56:47.152Z,8.30
2018-05-15T18:59:16.176Z,8.00
2018-05-15T19:01:43.677Z,8.30
2018-05-15T19:04:11.193Z,8.57
2018-05-15T19:06:38.701Z,9.37
2018-05-15T19:09:06.222Z,11.00
2018-05-15T19:11:33.716Z,8.53
2018-05-15T19:14:01.316Z,9.60
2018-05-15T19:16:28.792Z,9.80
2018-05-15T19:18:56.306Z,11.53
2018-05-15T19:21:24.628Z,8.90
2018-05-15T19:23:52.177Z,9.03
2018-05-15T19:26:19.669Z,9.90
2018-05-15T19:28:47.185Z,11.27
2018-05-15T19:31:15.448Z,10.73
2018-05-15T19:33:58.610Z,10.13
2018-05-15T19:36:31.093Z,8.53
2018-05-15T19:39:04.310Z,7.90
2018-05-15T19:41:31.806Z,8.33
2018-05-15T19:44:00.085Z,9.40
2018-05-15T19:46:28.344Z,9.47
2018-05-15T19:48:55.942Z,8.97
2018-05-15T19:51:23.436Z,9.03
2018-05-15T19:53:50.948Z,9.20
2018-05-15T19:56:18.457Z,8.90
2018-05-15T19:58:46.067Z,8.90
2018-05-15T20:01:13.570Z,9.17
2018-05-15T20:03:41.089Z,7.70
2018-05-15T20:06:08.585Z,8.97
2018-05-15T20:08:36.105Z,16.70
2018-05-15T20:11:03.675Z,17.70
2018-05-15T20:13:31.204Z,10.10
2018-05-15T20:15:59.691Z,8.03
2018-05-15T20:18:27.970Z,8.63
2018-05-15T20:20:55.526Z,10.13
2018-05-15T20:23:23.034Z,8.30
2018-05-15T20:25:50.629Z,10.03
2018-05-15T20:28:18.910Z,9.37
2018-05-15T20:30:46.465Z,9.53
2018-05-15T20:33:14.728Z,11.50
2018-05-15T20:35:42.244Z,12.10
2018-05-15T20:38:09.744Z,12.40
2018-05-15T20:40:38.057Z,13.60
2018-05-15T20:43:05.562Z,12.37
2018-05-15T20:45:34.613Z,12.80
2018-05-15T20:48:02.117Z,12.17
2018-05-15T20:50:29.629Z,13.30
2018-05-15T20:52:57.133Z,13.13
2018-05-15T20:55:24.645Z,13.10
2018-05-15T20:57:52.172Z,14.03
2018-05-15T21:00:20.469Z,13.20
2018-05-15T21:02:47.968Z,14.97
2018-05-15T21:05:15.483Z,14.47
2018-05-15T21:07:42.989Z,14.97
2018-05-15T21:10:10.504Z,15.53
2018-05-15T21:12:38.000Z,15.67
2018-05-15T21:15:05.602Z,14.83
2018-05-15T21:17:33.037Z,15.97
2018-05-15T21:20:00.622Z,16.47
2018-05-15T21:22:28.077Z,16.57
2018-05-15T21:24:56.361Z,16.53
2018-05-15T21:27:24.633Z,15.80
2018-05-15T21:29:52.917Z,16.87
2018-05-15T21:32:21.185Z,17.90
2018-05-15T21:34:49.465Z,15.67
2018-05-15T21:37:17.724Z,16.23
2018-05-15T21:39:45.245Z,15.80
2018-05-15T21:42:12.749Z,17.00
2018-05-15T21:44:41.029Z,16.47
2018-05-15T21:47:09.293Z,15.70
2018-05-15T21:49:37.580Z,15.23
2018-05-15T21:52:05.844Z,16.20
2018-05-15T21:54:33.446Z,16.30
2018-05-15T21:57:00.949Z,15.77
2018-05-15T21:59:28.460Z,16.27
2018-05-15T22:01:55.961Z,15.80
2018-05-15T22:04:23.486Z,15.83
2018-05-15T22:06:51.029Z,16.40
2018-05-15T22:09:18.659Z,16.33
2018-05-15T22:11:58.031Z,16.43
2018-05-15T22:14:37.368Z,16.17
2018-05-15T22:17:16.836Z,16.50
2018-05-15T22:19:56.317Z,16.40
2018-05-15T22:22:24.088Z,17.33
2018-05-15T22:24:52.369Z,16.40
2018-05-15T22:27:19.873Z,16.63
2018-05-15T22:29:47.376Z,17.50
2018-05-15T22:32:15.661Z,17.83
2018-05-15T22:34:43.157Z,16.90
2018-05-15T22:37:10.677Z,17.23
2018-05-15T22:39:38.254Z,18.17
2018-05-15T22:42:05.777Z,19.90
2018-05-15T22:44:34.045Z,18.57
2018-05-15T22:47:01.562Z,18.60
2018-05-15T22:49:29.061Z,18.87
2018-05-15T22:51:57.350Z,19.50
2018-05-15T22:54:25.622Z,18.03
2018-05-15T22:56:53.896Z,21.30
2018-05-15T22:59:22.161Z,19.97
2018-05-15T23:01:51.184Z,20.93
2018-05-15T23:04:18.688Z,20.43
2018-05-15T23:06:46.204Z,20.00
2018-05-15T23:09:13.713Z,19.60
2018-05-15T23:11:41.320Z,19.10
2018-05-15T23:14:08.821Z,19.47
2018-05-15T23:16:36.341Z,18.57
2018-05-15T23:19:03.892Z,20.50
2018-05-15T23:21:31.409Z,18.20
2018-05-15T23:23:58.912Z,20.57
2018-05-15T23:26:26.430Z,20.60
2018-05-15T23:28:53.933Z,22.27
2018-05-15T23:31:21.459Z,19.20
2018-05-15T23:33:48.960Z,19.80
2018-05-15T23:36:16.477Z,20.77
2018-05-15T23:38:44.741Z,20.50
2018-05-15T23:41:13.057Z,19.50
2018-05-15T23:43:40.561Z,19.87
2018-05-15T23:46:08.092Z,21.27
2018-05-15T23:48:35.589Z,19.57
2018-05-15T23:51:03.188Z,22.20
2018-05-15T23:53:30.684Z,20.67
2018-05-15T23:55:58.196Z,19.83
2018-05-15T23:58:26.465Z,22.00
